Time;durP1;ratioP1;P1;durP2;ratioP2;P2;SDS_P1;SDS_P2;PMS_P1;PMS_P2;Temp;Humidity;BMP_temperature;BMP_pressure;BME280_temperature;BME280_humidity;BME280_pressure;Samples;Min_cycle;Max_cycle;Signal;HPM_P1;HPM_P2
2023/02/06 00:01:10;;;;;;;1999.90;999.90;;;;;;;-1.94;71.04;99684.22;5097220;28;20076;-85
2023/02/06 00:03:36;;;;;;;1999.90;999.90;;;;;;;-2.01;71.51;99656.47;5095705;28;20017;-83
2023/02/06 00:06:01;;;;;;;1999.90;999.90;;;;;;;-2.01;71.88;99663.66;5111014;28;20020;-83
2023/02/06 00:08:27;;;;;;;1999.90;999.90;;;;;;;-1.99;72.03;99670.53;5114752;28;20004;-85
2023/02/06 00:10:53;;;;;;;1999.90;999.90;;;;;;;-2.07;71.70;99664.34;5111769;28;20047;-84
2023/02/06 00:13:19;;;;;;;1999.90;999.90;;;;;;;-2.05;71.90;99683.78;5116494;28;20019;-83
2023/02/06 00:15:44;;;;;;;1999.90;999.90;;;;;;;-2.04;71.72;99677.41;5115938;28;20032;-81
2023/02/06 00:18:10;;;;;;;1999.90;999.90;;;;;;;-2.00;70.71;99673.34;5116276;28;20083;-87
2023/02/06 00:20:36;;;;;;;1999.90;999.90;;;;;;;-2.02;71.46;99692.31;5116443;28;20025;-85
2023/02/06 00:23:02;;;;;;;1999.90;999.90;;;;;;;-2.09;71.80;99674.41;5113475;28;20032;-84
2023/02/06 00:25:27;;;;;;;1999.90;999.90;;;;;;;-2.16;71.14;99677.75;5121851;28;20015;-83
2023/02/06 00:27:52;;;;;;;1999.90;999.90;;;;;;;-2.13;71.30;99686.50;5121643;28;20015;-86
2023/02/06 00:30:18;;;;;;;1999.90;999.90;;;;;;;-2.32;71.52;99671.63;5121799;28;20016;-80
2023/02/06 00:32:43;;;;;;;1999.90;999.90;;;;;;;-2.24;71.68;99683.16;5120642;28;20016;-80
2023/02/06 00:35:08;;;;;;;1999.90;999.90;;;;;;;-2.18;71.28;99687.84;5121268;28;20071;-84
2023/02/06 00:37:34;;;;;;;1999.90;999.90;;;;;;;-2.18;71.23;99693.19;5120221;28;20028;-83
2023/02/06 00:39:59;;;;;;;1999.90;999.90;;;;;;;-2.17;72.20;99700.22;5120997;28;20035;-88
2023/02/06 00:42:25;;;;;;;1999.90;999.90;;;;;;;-2.25;72.02;99697.56;5120780;28;20042;-85
2023/02/06 00:44:50;;;;;;;1999.90;999.90;;;;;;;-2.24;72.28;99691.19;5117986;28;20008;-83
2023/02/06 00:47:15;;;;;;;1999.90;999.90;;;;;;;-2.27;72.80;99696.91;5105944;28;20028;-80
2023/02/06 00:49:41;;;;;;;1999.90;999.90;;;;;;;-2.32;72.48;99704.59;5120995;28;20043;-82
2023/02/06 00:52:06;;;;;;;1999.90;999.90;;;;;;;-2.37;73.16;99715.00;5107362;28;20008;-82
2023/02/06 00:54:31;;;;;;;1999.90;999.90;;;;;;;-2.40;74.37;99714.50;5100900;28;20008;-82
2023/02/06 00:56:57;;;;;;;1999.90;999.90;;;;;;;-2.34;73.28;99717.31;5100719;28;20016;-79
2023/02/06 00:59:22;;;;;;;1999.90;999.90;;;;;;;-2.41;72.99;99710.97;5107504;28;20028;-82
2023/02/06 01:01:48;;;;;;;1999.90;999.90;;;;;;;-2.44;73.83;99708.63;5119390;28;20000;-80
2023/02/06 01:04:13;;;;;;;1999.90;999.90;;;;;;;-2.47;74.29;99708.97;5119395;28;20012;-82
2023/02/06 01:06:38;;;;;;;1999.90;999.90;;;;;;;-2.51;74.32;99701.47;5120589;28;20082;-81
2023/02/06 01:09:04;;;;;;;1999.90;999.90;;;;;;;-2.41;74.52;99713.66;5120216;28;20040;-78
2023/02/06 01:11:29;;;;;;;1999.90;999.90;;;;;;;-2.45;75.31;99716.84;5111217;28;20016;-82
2023/02/06 01:13:54;;;;;;;1999.90;999.90;;;;;;;-2.48;75.29;99710.00;5099985;28;20082;-80
2023/02/06 01:16:22;;;;;;;1999.90;999.90;;;;;;;-2.49;74.51;99712.81;5097923;28;20035;-82
2023/02/06 01:18:49;;;;;;;1999.90;999.90;;;;;;;-2.59;74.55;99721.03;5116767;28;20020;-80
2023/02/06 01:21:17;;;;;;;1999.90;999.90;;;;;;;-2.66;75.06;99714.66;5120209;28;20024;-84
2023/02/06 01:23:43;;;;;;;1999.90;999.90;;;;;;;-2.72;75.45;99716.19;5109723;28;20044;-87
2023/02/06 01:26:12;;;;;;;1999.90;999.90;;;;;;;-2.69;75.55;99725.72;5112023;28;20035;-88
2023/02/06 01:28:40;;;;;;;1999.90;999.90;;;;;;;-2.63;74.98;99727.72;5117756;28;20032;-82
2023/02/06 01:31:17;;;;;;;1999.90;999.90;;;;;;;-2.68;75.01;99731.91;5098811;28;20009;-82
2023/02/06 01:33:44;;;;;;;1999.90;999.90;;;;;;;-2.64;74.85;99726.06;5098364;28;20050;-86
2023/02/06 01:36:10;;;;;;;1999.90;999.90;;;;;;;-2.73;75.27;99737.78;5112370;28;20028;-82
2023/02/06 01:38:36;;;;;;;1999.90;999.90;;;;;;;-2.69;75.50;99741.78;5120760;28;20043;-81
2023/02/06 01:41:02;;;;;;;1999.90;999.90;;;;;;;-2.85;75.75;99723.06;5119926;28;20020;-82
2023/02/06 01:43:31;;;;;;;1999.90;999.90;;;;;;;-2.84;76.49;99730.91;5119666;28;20027;-82
2023/02/06 01:45:57;;;;;;;1999.90;999.90;;;;;;;-2.81;76.63;99735.91;5116807;28;20031;-88
2023/02/06 01:48:36;;;;;;;1999.90;999.90;;;;;;;-2.83;77.31;99737.09;5116329;28;20020;-82
2023/02/06 01:51:05;;;;;;;1999.90;999.90;;;;;;;-2.93;77.00;99733.72;5117770;28;20031;-85
2023/02/06 01:53:31;;;;;;;1999.90;999.90;;;;;;;-2.93;77.28;99723.03;5109294;28;20034;-84
2023/02/06 01:56:00;;;;;;;1999.90;999.90;;;;;;;-2.93;77.71;99739.94;5110103;28;20007;-82
2023/02/06 01:58:30;;;;;;;1999.90;999.90;;;;;;;-2.89;77.52;99735.09;5102705;28;20015;-86
2023/02/06 02:00:57;;;;;;;1999.90;999.90;;;;;;;-3.03;78.16;99744.59;5098611;28;20096;-83
2023/02/06 02:03:24;;;;;;;1999.90;999.90;;;;;;;-3.03;78.45;99727.69;5104971;28;20058;-84
2023/02/06 02:05:52;;;;;;;1999.90;999.90;;;;;;;-3.03;79.24;99728.53;5118200;28;20032;-84
2023/02/06 02:08:24;;;;;;;1999.90;999.90;;;;;;;-3.06;78.86;99738.72;5119301;28;20101;-83
2023/02/06 02:10:49;;;;;;;1999.90;999.90;;;;;;;-3.17;79.46;99721.16;5118994;28;20043;-82
2023/02/06 02:13:15;;;;;;;1999.90;999.90;;;;;;;-3.22;79.26;99733.34;5119332;28;20020;-81
2023/02/06 02:15:55;;;;;;;1999.90;999.90;;;;;;;-3.17;79.33;99736.38;5119400;28;20040;-82
2023/02/06 02:18:38;;;;;;;1999.90;999.90;;;;;;;-3.11;79.17;99741.06;5119884;28;20011;-83
2023/02/06 02:21:22;;;;;;;1999.90;999.90;;;;;;;-3.17;79.94;99749.75;5120139;28;20089;-77
2023/02/06 02:24:07;;;;;;;1999.90;999.90;;;;;;;-3.17;79.98;99747.06;5119690;28;20023;-77
2023/02/06 02:26:55;;;;;;;1999.90;999.90;;;;;;;-3.33;80.98;99731.81;5119630;28;20005;-78
2023/02/06 02:29:58;;;;;;;1999.90;999.90;;;;;;;-3.23;81.16;99753.94;5118802;28;20032;-79
2023/02/06 02:32:37;;;;;;;1999.90;999.90;;;;;;;-3.23;81.34;99753.94;5118684;28;20034;-82
2023/02/06 02:35:38;;;;;;;1999.90;999.90;;;;;;;-3.20;80.66;99747.41;5118479;28;20008;-82
2023/02/06 02:38:25;;;;;;;1999.90;999.90;;;;;;;-3.26;81.64;99754.25;5037325;28;20037;-85
2023/02/06 02:40:59;;;;;;;1999.90;999.90;;;;;;;-3.43;82.04;99737.31;5113651;28;20052;-83
2023/02/06 02:43:43;;;;;;;1999.90;999.90;;;;;;;-3.39;82.30;99748.53;5118317;28;20062;-79
2023/02/06 02:46:17;;;;;;;1999.90;999.90;;;;;;;-3.34;82.21;99759.56;5116915;28;20039;-83
2023/02/06 02:48:47;;;;;;;1999.90;999.90;;;;;;;-3.31;82.20;99759.22;5118954;28;20032;-80
2023/02/06 02:51:13;;;;;;;1999.90;999.90;;;;;;;-3.49;82.34;99716.56;5119659;28;20025;-81
2023/02/06 02:53:38;;;;;;;1999.90;999.90;;;;;;;-3.43;82.93;99748.00;5118936;28;20039;-81
2023/02/06 02:56:19;;;;;;;1999.90;999.90;;;;;;;-3.39;83.70;99754.72;5118619;28;20012;-81
2023/02/06 02:58:48;;;;;;;1999.90;999.90;;;;;;;-3.44;83.76;99767.72;5118461;28;20066;-84
2023/02/06 03:01:20;;;;;;;1999.90;999.90;;;;;;;-3.55;84.26;99738.59;5113047;28;20025;-85
2023/02/06 03:03:47;;;;;;;1999.90;999.90;;;;;;;-3.45;83.82;99754.53;5097302;28;20024;-81
2023/02/06 03:06:44;;;;;;;1999.90;999.90;;;;;;;-3.49;84.37;99747.81;5098109;28;20012;-82
2023/02/06 03:09:42;;;;;;;1999.90;999.90;;;;;;;-3.53;85.80;99752.63;5103602;28;20032;-82
2023/02/06 03:12:22;;;;;;;1999.90;999.90;;;;;;;-3.56;86.00;99757.47;5118566;28;20031;-80
2023/02/06 03:14:58;;;;;;;1999.90;999.90;;;;;;;-3.50;85.18;99756.81;5118400;28;20004;-79
2023/02/06 03:17:35;;;;;;;1999.90;999.90;;;;;;;-3.53;85.41;99763.34;5117914;28;20043;-84
2023/02/06 03:20:03;;;;;;;1999.90;999.90;;;;;;;-3.46;85.02;99772.41;5104756;28;20034;-88
2023/02/06 03:22:31;;;;;;;1999.90;999.90;;;;;;;-3.52;85.40;99757.00;5095784;28;20025;-86
2023/02/06 03:24:57;;;;;;;1999.90;999.90;;;;;;;-3.41;85.47;99751.34;5096315;28;20051;-84
2023/02/06 03:27:26;;;;;;;1999.90;999.90;;;;;;;-3.47;84.97;99751.16;5094420;28;20023;-85
2023/02/06 03:29:53;;;;;;;1999.90;999.90;;;;;;;-3.35;84.56;99764.06;5104897;28;20036;-85
2023/02/06 03:32:30;;;;;;;1999.90;999.90;;;;;;;-3.38;84.12;99761.72;5101200;28;20054;-85
2023/02/06 03:35:01;;;;;;;1999.90;999.90;;;;;;;-3.44;84.67;99766.88;5080825;28;20013;-78
2023/02/06 03:37:28;;;;;;;1999.90;999.90;;;;;;;-3.41;84.27;99772.75;5097865;28;20039;-81
2023/02/06 03:39:57;;;;;;;1999.90;999.90;;;;;;;-3.50;84.63;99763.00;5097527;28;20020;-85
2023/02/06 03:42:23;;;;;;;1999.90;999.90;;;;;;;-3.51;85.61;99763.19;5097414;28;20016;-85
2023/02/06 03:44:58;;;;;;;1999.90;999.90;;;;;;;-3.43;85.35;99773.91;5097771;28;20051;-82
2023/02/06 03:47:25;;;;;;;1999.90;999.90;;;;;;;-3.42;85.72;99776.44;5095144;28;20027;-84
2023/02/06 03:49:52;;;;;;;1999.90;999.90;;;;;;;-3.44;86.07;99769.53;5102186;28;20036;-84
2023/02/06 03:52:24;;;;;;;1999.90;999.90;;;;;;;-3.44;85.63;99769.53;5112622;28;20609;-85
2023/02/06 03:55:03;;;;;;;1999.90;999.90;;;;;;;-3.46;85.04;99772.41;5111622;28;20015;-86
2023/02/06 03:57:30;;;;;;;1999.90;999.90;;;;;;;-3.32;84.90;99776.31;5110636;28;20028;-83
2023/02/06 03:59:56;;;;;;;1999.90;999.90;;;;;;;-3.37;84.81;99774.09;5099501;28;20028;-85
2023/02/06 04:02:24;;;;;;;1999.90;999.90;;;;;;;-3.45;84.61;99762.53;5108024;28;20039;-84
2023/02/06 04:04:49;;;;;;;1999.90;999.90;;;;;;;-3.37;84.46;99783.94;5117006;28;20035;-87
2023/02/06 04:07:27;;;;;;;1999.90;999.90;;;;;;;-3.27;84.00;99784.66;5115643;28;20595;-87
2023/02/06 04:09:52;;;;;;;1999.90;999.90;;;;;;;-3.35;85.17;99782.78;5116096;28;20058;-83
2023/02/06 04:12:19;;;;;;;1999.90;999.90;;;;;;;-3.25;84.48;99774.63;5114918;28;20055;-86
2023/02/06 04:14:44;;;;;;;1999.90;999.90;;;;;;;-3.36;85.00;99753.53;5115472;28;20028;-87
2023/02/06 04:17:10;;;;;;;1999.90;999.90;;;;;;;-3.31;84.64;99778.78;5115121;28;20028;-85
2023/02/06 04:19:40;;;;;;;1999.90;999.90;;;;;;;-3.27;84.42;99771.28;5109115;28;20035;-83
2023/02/06 04:22:07;;;;;;;1999.90;999.90;;;;;;;-3.26;84.34;99776.47;5105153;28;20083;-77
2023/02/06 04:24:33;;;;;;;1999.90;999.90;;;;;;;-3.31;85.25;99777.94;5109238;28;20016;-77
2023/02/06 04:26:58;;;;;;;1999.90;999.90;;;;;;;-3.28;83.63;99783.81;5117274;28;20034;-82
2023/02/06 04:29:24;;;;;;;1999.90;999.90;;;;;;;-3.39;83.96;99784.13;5116807;28;20018;-81
2023/02/06 04:31:49;;;;;;;1999.90;999.90;;;;;;;-3.30;84.40;99779.63;5115390;28;20077;-84
2023/02/06 04:34:15;;;;;;;1999.90;999.90;;;;;;;-3.43;84.72;99760.53;5115513;28;20024;-82
2023/02/06 04:36:40;;;;;;;1999.90;999.90;;;;;;;-3.35;84.97;99772.09;5115275;28;20023;-83
2023/02/06 04:39:06;;;;;;;1999.90;999.90;;;;;;;-3.43;85.02;99769.41;5116102;28;20104;-82
2023/02/06 04:41:33;;;;;;;1999.90;999.90;;;;;;;-3.49;86.26;99785.25;5115847;28;20012;-83
2023/02/06 04:43:59;;;;;;;1999.90;999.90;;;;;;;-3.43;85.67;99785.44;5115778;28;20032;-84
2023/02/06 04:46:24;;;;;;;1999.90;999.90;;;;;;;-3.41;85.87;99775.41;5117077;28;20023;-77
2023/02/06 04:48:50;;;;;;;1999.90;999.90;;;;;;;-3.56;86.33;99774.34;5116397;28;20004;-89
2023/02/06 04:51:15;;;;;;;1999.90;999.90;;;;;;;-3.53;86.40;99781.22;5117537;28;20009;-87
2023/02/06 04:53:41;;;;;;;1999.90;999.90;;;;;;;-3.35;85.67;99793.47;5116723;28;20032;-80
2023/02/06 04:56:09;;;;;;;1999.90;999.90;;;;;;;-3.44;86.53;99789.09;5115985;28;20009;-86
2023/02/06 04:58:35;;;;;;;1999.90;999.90;;;;;;;-3.45;86.65;99784.78;5116764;28;20028;-84
2023/02/06 05:01:01;;;;;;;1999.90;999.90;;;;;;;-3.38;85.70;99796.47;5113393;28;20028;-89
2023/02/06 05:03:28;;;;;;;1999.90;999.90;;;;;;;-3.32;85.16;99793.16;5115324;28;20034;-83
2023/02/06 05:05:54;;;;;;;1999.90;999.90;;;;;;;-3.47;86.83;99800.13;5117419;28;20084;-79
2023/02/06 05:08:20;;;;;;;1999.90;999.90;;;;;;;-3.56;88.08;99789.53;5118338;28;20051;-82
2023/02/06 05:10:45;;;;;;;1999.90;999.90;;;;;;;-3.52;87.91;99807.81;5119549;28;20054;-87
2023/02/06 05:13:11;;;;;;;1999.90;999.90;;;;;;;-3.49;88.10;99807.47;5118576;28;20050;-86
2023/02/06 05:15:37;;;;;;;1999.90;999.90;;;;;;;-3.33;87.50;99820.94;5121071;28;20044;-84
2023/02/06 05:18:03;;;;;;;1999.90;999.90;;;;;;;-3.37;86.82;99813.38;5120994;28;20004;-81
2023/02/06 05:20:28;;;;;;;1999.90;999.90;;;;;;;-3.26;87.04;99819.25;5120861;28;20012;-78
2023/02/06 05:22:54;;;;;;;1999.90;999.90;;;;;;;-3.25;86.57;99807.56;5120864;28;20079;-81
2023/02/06 05:25:20;;;;;;;1999.90;999.90;;;;;;;-3.34;87.10;99808.53;5120858;28;20023;-82
2023/02/06 05:27:45;;;;;;;1999.90;999.90;;;;;;;-3.33;88.34;99807.56;5120780;28;20031;-84
2023/02/06 05:30:12;;;;;;;1999.90;999.90;;;;;;;-3.37;87.32;99813.38;5118608;28;20028;-83
2023/02/06 05:32:38;;;;;;;1999.90;999.90;;;;;;;-3.55;88.44;99805.44;5117541;28;20012;-85
2023/02/06 05:35:04;;;;;;;1999.90;999.90;;;;;;;-3.62;89.22;99816.91;5117552;28;20046;-86
2023/02/06 05:37:29;;;;;;;1999.90;999.90;;;;;;;-3.57;89.35;99817.31;5118000;28;20024;-84
2023/02/06 05:39:54;;;;;;;1999.90;999.90;;;;;;;-3.61;89.83;99806.09;5116743;28;20013;-83
2023/02/06 05:42:20;;;;;;;1999.90;999.90;;;;;;;-3.59;89.90;99822.78;5099521;28;20020;-83
2023/02/06 05:44:45;;;;;;;1999.90;999.90;;;;;;;-3.56;89.92;99817.13;5107061;28;20025;-83
2023/02/06 05:47:10;;;;;;;1999.90;999.90;;;;;;;-3.69;90.09;99790.00;5104402;28;20036;-80
2023/02/06 05:49:36;;;;;;;1999.90;999.90;;;;;;;-3.65;90.08;99810.06;5119652;28;20008;-78
2023/02/06 05:52:01;;;;;;;1999.90;999.90;;;;;;;-3.50;89.49;99811.13;5120038;28;20040;-80
2023/02/06 05:54:27;;;;;;;1999.90;999.90;;;;;;;-3.52;89.83;99831.03;5118427;28;20036;-84
2023/02/06 05:56:52;;;;;;;1999.90;999.90;;;;;;;-3.74;89.06;99803.00;5118936;28;20027;-79
2023/02/06 05:59:17;;;;;;;1999.90;999.90;;;;;;;-3.65;89.95;99809.22;5120334;28;20023;-76
2023/02/06 06:01:43;;;;;;;1999.90;999.90;;;;;;;-3.57;89.37;99823.47;5118743;28;20059;-84
2023/02/06 06:04:10;;;;;;;1999.90;999.90;;;;;;;-3.54;90.52;99822.34;5090277;28;20036;-75
2023/02/06 06:06:36;;;;;;;1999.90;999.90;;;;;;;-3.58;90.00;99824.47;5081948;28;20060;-83
2023/02/06 06:09:02;;;;;;;1999.90;999.90;;;;;;;-3.51;89.47;99805.97;5078280;28;20040;-83
2023/02/06 06:11:29;;;;;;;1999.90;999.90;;;;;;;-3.51;89.89;99822.81;5093546;28;20659;-80
2023/02/06 06:13:54;;;;;;;1999.90;999.90;;;;;;;-3.66;89.23;99808.38;5093779;28;20085;-80
2023/02/06 06:16:19;;;;;;;1999.90;999.90;;;;;;;-3.54;89.03;99815.13;5094430;28;20484;-84
2023/02/06 06:18:45;;;;;;;1999.90;999.90;;;;;;;-3.54;89.84;99815.13;5095353;28;20039;-82
2023/02/06 06:21:10;;;;;;;1999.90;999.90;;;;;;;-3.60;89.14;99813.09;5093924;28;20425;-81
2023/02/06 06:23:36;;;;;;;1999.90;999.90;;;;;;;-3.52;88.65;99813.16;5103669;28;20065;-85
2023/02/06 06:26:01;;;;;;;1999.90;999.90;;;;;;;-3.45;88.20;99810.66;5104176;28;20439;-84
2023/02/06 06:28:26;;;;;;;1999.90;999.90;;;;;;;-3.50;88.34;99812.97;5112532;28;20016;-84
2023/02/06 06:31:00;;;;;;;1999.90;999.90;;;;;;;-3.32;87.80;99814.56;5109855;28;20032;-83
2023/02/06 06:33:25;;;;;;;1999.90;999.90;;;;;;;-3.38;87.94;99823.22;5103020;28;20035;-84
2023/02/06 06:35:50;;;;;;;1999.90;999.90;;;;;;;-3.33;87.09;99820.94;5105053;28;20024;-82
2023/02/06 06:38:16;;;;;;;1999.90;999.90;;;;;;;-3.18;86.35;99826.50;5109446;28;20036;-83
2023/02/06 06:40:41;;;;;;;1999.90;999.90;;;;;;;-3.28;85.63;99815.91;5106598;28;20395;-83
2023/02/06 06:43:06;;;;;;;1999.90;999.90;;;;;;;-3.38;88.13;99817.03;5101979;28;20062;-83
2023/02/06 06:45:33;;;;;;;1999.90;999.90;;;;;;;-3.41;87.93;99817.34;5113039;28;20045;-82
2023/02/06 06:47:58;;;;;;;1999.90;999.90;;;;;;;-3.43;87.32;99806.84;5112274;28;20020;-85
2023/02/06 06:50:23;;;;;;;1999.90;999.90;;;;;;;-3.49;87.39;99812.81;5110625;28;20007;-85
2023/02/06 06:52:49;;;;;;;1999.90;999.90;;;;;;;-3.32;86.55;99803.03;5111718;28;20104;-83
2023/02/06 06:55:14;;;;;;;1999.90;999.90;;;;;;;-3.23;85.27;99795.88;5108929;28;20024;-85
2023/02/06 06:57:40;;;;;;;1999.90;999.90;;;;;;;-3.10;84.55;99809.63;5115777;28;20008;-81
2023/02/06 07:00:06;;;;;;;1999.90;999.90;;;;;;;-3.26;84.00;99795.19;5116001;28;20020;-85
2023/02/06 07:02:31;;;;;;;1999.90;999.90;;;;;;;-3.30;85.02;99804.56;5115492;28;20038;-86
2023/02/06 07:04:56;;;;;;;1999.90;999.90;;;;;;;-3.34;85.57;99821.91;5116860;28;20028;-87
2023/02/06 07:07:22;;;;;;;1999.90;999.90;;;;;;;-3.35;85.70;99817.56;5114776;28;20023;-88
2023/02/06 07:09:47;;;;;;;1999.90;999.90;;;;;;;-3.34;85.71;99803.19;5115878;28;20032;-84
2023/02/06 07:12:12;;;;;;;1999.90;999.90;;;;;;;-3.28;85.29;99807.06;5116833;28;20052;-86
2023/02/06 07:14:39;;;;;;;1999.90;999.90;;;;;;;-3.40;85.15;99801.16;5116261;28;20032;-89
2023/02/06 07:17:04;;;;;;;1999.90;999.90;;;;;;;-3.18;84.56;99820.28;5115673;28;20036;-85
2023/02/06 07:19:31;;;;;;;1999.90;999.90;;;;;;;-3.20;83.98;99815.13;5113786;28;20027;-85
2023/02/06 07:21:56;;;;;;;1999.90;999.90;;;;;;;-2.93;83.49;99827.41;5113945;28;20032;-86
2023/02/06 07:24:22;;;;;;;1999.90;999.90;;;;;;;-3.27;82.84;99814.09;5105950;28;20040;-84
2023/02/06 07:26:47;;;;;;;1999.90;999.90;;;;;;;-3.47;83.86;99804.63;5108983;28;20035;-86
2023/02/06 07:29:12;;;;;;;1999.90;999.90;;;;;;;-3.51;85.88;99817.47;5118472;28;20024;-78
2023/02/06 07:31:38;;;;;;;1999.90;999.90;;;;;;;-3.33;84.49;99812.06;5118037;28;20029;-79
2023/02/06 07:34:03;;;;;;;1999.90;999.90;;;;;;;-3.15;83.34;99820.81;5118667;28;20008;-80
2023/02/06 07:39:07;;;;;;;1999.90;999.90;;;;;;;-3.42;84.69;99829.91;6087475;23;20838;-80
2023/02/06 07:41:40;;;;;;;1999.90;999.90;;;;;;;-3.60;84.23;99788.22;5016490;28;20035;-79
2023/02/06 07:44:09;;;;;;;1999.90;999.90;;;;;;;-3.49;82.87;99807.47;5017625;28;20060;-82
2023/02/06 07:46:35;;;;;;;1999.90;999.90;;;;;;;-3.69;84.42;99789.16;5001492;28;20065;-78
2023/02/06 07:49:04;;;;;;;1999.90;999.90;;;;;;;-3.72;84.04;99784.97;5017955;28;20018;-79
2023/02/06 07:51:29;;;;;;;1999.90;999.90;;;;;;;-3.67;84.37;99800.53;5017888;28;20014;-79
2023/02/06 07:54:06;;;;;;;1999.90;999.90;;;;;;;-3.71;84.00;99775.94;5001703;28;20022;-77
2023/02/06 07:56:32;;;;;;;1999.90;999.90;;;;;;;-3.59;82.98;99779.19;5026078;28;20026;-80
2023/02/06 07:58:57;;;;;;;1999.90;999.90;;;;;;;-3.44;82.63;99794.44;5020895;28;20057;-78
2023/02/06 08:06:33;;;;;;;1999.90;999.90;;;;;;;-2.95;80.62;99829.41;6163919;22;20040;-83
2023/02/06 08:09:27;;;;;;;1999.90;999.90;;;;;;;-3.01;79.32;99776.56;5004483;28;20041;-84
2023/02/06 08:11:53;;;;;;;1999.90;999.90;;;;;;;-2.82;78.88;99792.31;5037790;28;20017;-78
2023/02/06 08:14:21;;;;;;;1999.90;999.90;;;;;;;-2.80;78.91;99798.34;5037493;28;20018;-81
2023/02/06 08:16:48;;;;;;;1999.90;999.90;;;;;;;-3.28;81.04;99759.75;5037637;28;20012;-78
2023/02/06 08:19:14;;;;;;;1999.90;999.90;;;;;;;-2.75;79.73;99828.09;5020731;28;20033;-80
2023/02/06 08:37:11;;;;;;;1999.90;999.90;;;;;;;-3.06;78.32;99752.94;5964449;22;20057;-85
2023/02/06 08:39:37;;;;;;;1999.90;999.90;;;;;;;-3.16;78.27;99786.22;5020507;28;20074;-78
2023/02/06 08:42:03;;;;;;;1999.90;999.90;;;;;;;-2.72;77.58;99831.31;5019821;28;20033;-78
2023/02/06 08:44:28;;;;;;;1999.90;999.90;;;;;;;-2.75;76.34;99777.25;5024146;28;20018;-77
2023/02/06 08:46:54;;;;;;;1999.90;999.90;;;;;;;-2.60;76.09;99772.91;5041119;28;20101;-80
2023/02/06 08:49:25;;;;;;;1999.90;999.90;;;;;;;-2.17;73.14;99759.19;5040623;28;20042;-82
2023/02/06 08:51:50;;;;;;;1999.90;999.90;;;;;;;-1.81;72.07;99809.69;5041194;28;20010;-77
2023/02/06 08:54:19;;;;;;;1999.90;999.90;;;;;;;-1.41;70.16;99769.34;5040970;28;20085;-77
2023/02/06 08:56:45;;;;;;;1999.90;999.90;;;;;;;-1.11;68.92;99763.19;5040862;28;20018;-76
2023/02/06 08:59:16;;;;;;;1999.90;999.90;;;;;;;-0.97;66.08;99750.81;5023881;28;20017;-79
2023/02/06 09:01:44;;;;;;;1999.90;999.90;;;;;;;-0.42;65.68;99812.41;5040589;28;20014;-82
2023/02/06 09:04:11;;;;;;;1999.90;999.90;;;;;;;-0.70;64.89;99755.69;5040547;28;20006;-83
2023/02/06 09:06:39;;;;;;;1999.90;999.90;;;;;;;-0.60;64.19;99783.19;5038758;28;20037;-83
2023/02/06 09:09:07;;;;;;;1999.90;999.90;;;;;;;-0.30;64.33;99812.84;5039827;28;20041;-87
2023/02/06 09:11:34;;;;;;;1999.90;999.90;;;;;;;-1.14;65.57;99773.44;5032452;28;20010;-80
2023/02/06 09:14:01;;;;;;;1999.90;999.90;;;;;;;-1.47;67.09;99772.72;5003714;28;20042;-84
2023/02/06 09:16:28;;;;;;;1999.90;999.90;;;;;;;-0.98;66.83;99783.25;5020917;28;20011;-79
2023/02/06 09:19:00;;;;;;;1999.90;999.90;;;;;;;-0.61;65.58;99797.59;5020797;28;20107;-84
2023/02/06 09:21:31;;;;;;;1999.90;999.90;;;;;;;-0.81;65.92;99792.84;5004505;28;20054;-85
2023/02/06 09:24:01;;;;;;;1999.90;999.90;;;;;;;-0.99;64.56;99754.72;5019467;28;20057;-82
2023/02/06 09:26:32;;;;;;;1999.90;999.90;;;;;;;-0.64;64.19;99757.66;5018681;28;20033;-83
2023/02/06 09:29:00;;;;;;;1999.90;999.90;;;;;;;0.15;62.49;99828.94;5020379;28;20023;-88
2023/02/06 09:31:29;;;;;;;1999.90;999.90;;;;;;;0.08;63.34;99825.28;5019312;28;20017;-84
2023/02/06 09:33:59;;;;;;;1999.90;999.90;;;;;;;-0.24;62.62;99763.72;5001383;28;20038;-81
2023/02/06 09:36:25;;;;;;;1999.90;999.90;;;;;;;-0.26;62.62;99806.94;5017474;28;20041;-83
2023/02/06 09:38:58;;;;;;;1999.90;999.90;;;;;;;-0.35;61.82;99767.69;4986629;28;20055;-84
2023/02/06 09:41:30;;;;;;;1999.90;999.90;;;;;;;0.13;61.46;99827.41;5020336;28;20018;-76
2023/02/06 09:44:07;;;;;;;1999.90;999.90;;;;;;;-0.25;61.31;99754.00;5020494;28;20106;-76
2023/02/06 09:46:40;;;;;;;1999.90;999.90;;;;;;;-0.55;62.21;99769.19;5001536;28;20034;-79
2023/02/06 09:49:21;;;;;;;1999.90;999.90;;;;;;;-0.25;62.96;99824.72;5001858;28;20038;-82
2023/02/06 09:51:58;;;;;;;1999.90;999.90;;;;;;;-0.38;63.52;99834.41;5032033;28;20023;-87
2023/02/06 09:54:57;;;;;;;1999.90;999.90;;;;;;;-1.22;65.55;99749.28;5018496;28;20034;-79
2023/02/06 09:57:35;;;;;;;1999.90;999.90;;;;;;;-0.17;63.77;99830.03;5020287;28;20025;-83
2023/02/06 10:00:10;;;;;;;1999.90;999.90;;;;;;;-0.03;61.94;99770.06;5003502;28;20038;-79
2023/02/06 10:03:11;;;;;;;1999.90;999.90;;;;;;;-0.08;61.02;99767.09;5002360;28;20034;-83
2023/02/06 10:05:53;;;;;;;1999.90;999.90;;;;;;;-0.30;61.89;99775.19;4950035;29;20121;-85
2023/02/06 10:08:41;;;;;;;1999.90;999.90;;;;;;;-0.12;62.81;99826.78;5015185;28;20022;-82
2023/02/06 10:11:24;;;;;;;1999.90;999.90;;;;;;;0.19;61.83;99822.13;5037991;28;20030;-83
2023/02/06 10:13:59;;;;;;;1999.90;999.90;;;;;;;-0.15;62.30;99774.22;5020594;28;20093;-79
2023/02/06 10:16:34;;;;;;;1999.90;999.90;;;;;;;-0.37;62.97;99801.97;5038885;28;20065;-83
2023/02/06 10:19:07;;;;;;;1999.90;999.90;;;;;;;-0.11;61.58;99751.34;5038203;28;20033;-84
2023/02/06 10:21:44;;;;;;;1999.90;999.90;;;;;;;0.15;60.98;99776.97;5038512;28;20094;-85
2023/02/06 10:24:29;;;;;;;1999.90;999.90;;;;;;;-0.04;60.88;99763.03;5037350;28;20017;-81
2023/02/06 10:26:58;;;;;;;1999.90;999.90;;;;;;;-0.20;60.86;99746.22;5017345;28;20027;-82
2023/02/06 10:29:30;;;;;;;1999.90;999.90;;;;;;;-0.86;62.29;99779.13;5018048;28;20102;-86
2023/02/06 10:32:14;;;;;;;1999.90;999.90;;;;;;;-0.36;61.74;99803.63;5012183;28;20130;-83
2023/02/06 10:34:51;;;;;;;1999.90;999.90;;;;;;;-0.51;62.02;99785.78;5004334;28;20062;-83
2023/02/06 10:37:46;;;;;;;1999.90;999.90;;;;;;;-0.49;62.25;99806.09;5019371;28;20050;-78
2023/02/06 10:40:17;;;;;;;1999.90;999.90;;;;;;;-0.23;61.05;99801.19;5018821;28;20022;-83
2023/02/06 10:42:56;;;;;;;1999.90;999.90;;;;;;;0.04;60.77;99790.84;5015159;28;20056;-86
2023/02/06 10:45:40;;;;;;;1999.90;999.90;;;;;;;1.79;55.76;99800.53;5009122;28;20032;-82
2023/02/06 10:48:11;;;;;;;1999.90;999.90;;;;;;;3.02;50.88;99805.13;5016904;28;20100;-85
2023/02/06 10:50:44;;;;;;;1999.90;999.90;;;;;;;3.54;48.70;99798.25;5017648;28;20022;-85
2023/02/06 10:53:25;;;;;;;1999.90;999.90;;;;;;;3.99;47.92;99785.81;4999450;28;20009;-82
2023/02/06 10:56:05;;;;;;;1999.90;999.90;;;;;;;3.89;47.64;99774.56;5015722;28;20018;-86
2023/02/06 10:58:42;;;;;;;1999.90;999.90;;;;;;;3.74;47.65;99785.59;5008949;28;20033;-83
2023/02/06 11:01:11;;;;;;;1999.90;999.90;;;;;;;4.62;45.76;99770.75;5013100;28;20023;-83
2023/02/06 11:03:45;;;;;;;1999.90;999.90;;;;;;;4.99;45.38;99766.47;5012449;28;20023;-82
2023/02/06 11:06:16;;;;;;;1999.90;999.90;;;;;;;6.23;42.94;99771.16;5012530;28;20028;-85
2023/02/06 11:08:44;;;;;;;1999.90;999.90;;;;;;;5.99;42.11;99768.41;5014556;28;20086;-85
2023/02/06 11:11:20;;;;;;;1999.90;999.90;;;;;;;5.50;42.10;99769.13;5014067;28;20018;-81
2023/02/06 11:13:49;;;;;;;1999.90;999.90;;;;;;;4.70;43.55;99740.69;4998166;28;20038;-82
2023/02/06 11:16:21;;;;;;;1999.90;999.90;;;;;;;3.93;44.93;99744.19;5022061;28;20097;-81
2023/02/06 11:18:48;;;;;;;1999.90;999.90;;;;;;;3.13;46.88;99736.97;5033788;28;20030;-84
2023/02/06 11:21:34;;;;;;;1999.90;999.90;;;;;;;2.79;48.03;99741.66;5032259;28;20034;-83
2023/02/06 11:24:15;;;;;;;1999.90;999.90;;;;;;;2.82;48.05;99733.94;5033666;28;20024;-80
2023/02/06 11:26:45;;;;;;;1999.90;999.90;;;;;;;3.19;47.71;99727.25;5038507;28;20022;-83
2023/02/06 11:29:17;;;;;;;1999.90;999.90;;;;;;;3.71;47.65;99730.03;5038108;28;20061;-82